Nearby METAR Reports

 

KRYN - Tucson/Ryan Fld, Arizona, USA
Distance from station: SSW 16mi, 26km
Updated: Fri, 26-Nov-2021 11:45am MST
NOT Current
Clear
Clear
 Wind from E
Wind: E 198 mph , 319 km/h
Temperature: 70°F , 21°C
Dew Point: 28°F , -2°C
Humidity: 21%
Barometer: 30.11 inHg , 1019.6 hPa
Clouds: Clear
Visibility: 10 miles , 16 km
2021/11/26 18:45 KRYN 261845Z 1001722KT 10SM CLR 21/M02 A3011
KTUS - Tucson, Arizona, USA
Distance from station: SSE 18mi, 28km
Updated: Sat, 27-Nov-2021 1:53am MST
Clear
Clear
 Wind from ESE
Wind: ESE 6 mph , 9 km/h
Temperature: 48°F , 9°C
Wind Chill: 45°F , 7°C
Dew Point: 30°F , -1°C
Humidity: 50%
Barometer: 30.09 inHg , 1019 hPa
Clouds: Clear
Visibility: 10 miles , 16 km
2021/11/27 08:53 KTUS 270853Z 12005KT 10SM CLR 09/M01 A3009 RMK AO2 SLP163 T00941006 55004
 
KDMA - Davis/Tucson, Arizona, USA
Distance from station: SE 18mi, 29km
Updated: Sat, 27-Nov-2021 1:58am MST
Haze, Clear
Haze, Clear
 Wind from SE
Wind: SE 7 mph , 11 km/h
Temperature: 48°F , 9°C
Wind Chill: 45°F , 7°C
Dew Point: 30°F , -1°C
Humidity: 50%
Barometer: 30.06 inHg , 1017.9 hPa
Summary: Haze
Clouds: Clear
Visibility: 2 miles , 3 km
2021/11/27 08:58 KDMA 270858Z AUTO 13006KT 2SM HZ CLR 09/M01 A3006 RMK AO2 SLP157 T00911013 57006 $
KCGZ - Casa Granda, Arizona, USA
Distance from station: NW 57mi, 92km
Updated: Sat, 27-Nov-2021 1:56am MST
Clear
Clear
 Wind from NE
Wind: NE 5 mph , 7 km/h
Temperature: 52°F , 11°C
Dew Point: 30°F , -1°C
Humidity: 44%
Barometer: 30.05 inHg , 1017.6 hPa
Clouds: Clear
Visibility: 10 miles , 16 km
2021/11/27 08:56 KCGZ 270856Z AUTO 05004KT 10SM CLR 11/M01 A3005 RMK AO2 SLP171 6//// T01111011 58001
 
KALK - Pioneer Airfield, Arizona, USA
Distance from station: SE 65mi, 104km
Updated: Sat, 27-Nov-2021 1:56am MST
Clear
Clear
 Wind from calm
Wind: Calm
Temperature: 45°F , 7°C
Dew Point: 30°F , -1°C
Humidity: 57%
Barometer: 30.14 inHg , 1020.7 hPa
Clouds: Clear
Visibility: 10 miles , 16 km
2021/11/27 08:56 KALK 270856Z AUTO 00000KT 10SM CLR 07/M01 A3014 RMK AO2 SLP153 T00721011 57003
KOLS - Nogales, Arizona, USA
Distance from station: S 67mi, 108km
Updated: Sat, 27-Nov-2021 1:54am MST
Clear
Clear
 Wind from calm
Wind: Calm
Temperature: 43°F , 6°C
Dew Point: 34°F , 1°C
Humidity: 71%
Barometer: 30.10 inHg , 1019.3 hPa
Clouds: Clear
Visibility: 10 miles , 16 km
2021/11/27 08:54 KOLS 270854Z AUTO 00000KT 10SM CLR 06/01 A3010 RMK AO2 SLP159 T00610006 55004
 
KFHU - Fort Huachuca, Arizona, USA
Distance from station: SE 69mi, 110km
Updated: Sat, 27-Nov-2021 1:58am MST
Clear
Clear
 Wind from WSW
Wind: WSW 6 mph , 9 km/h
Temperature: 43°F , 6°C
Wind Chill: 39°F , 4°C
Dew Point: 32°F , 0°C
Humidity: 66%
Barometer: 30.13 inHg , 1020.3 hPa
Clouds: Clear
Visibility: 9 miles , 14 km
2021/11/27 08:58 KFHU 270858Z AUTO 24005KT 9SM CLR 06/00 A3013 RMK AO2 SLP173 T00600002 57005
KIWA - Chandler/Mesa, Arizona, USA
Distance from station: NNW 73mi, 117km
Updated: Sat, 27-Nov-2021 1:55am MST
Clear
Clear
 Wind from ESE
Wind: ESE 6 mph , 9 km/h
Temperature: 50°F , 10°C
Wind Chill: 48°F , 9°C
Dew Point: 30°F , -1°C
Humidity: 47%
Barometer: 30.05 inHg , 1017.6 hPa
Clouds: Clear
Visibility: 10 miles , 16 km
2021/11/27 08:55 KIWA 270855Z AUTO 12005KT 10SM CLR 10/M01 A3005 RMK AO2 T01051007